createdAt,value
2023-05-02T00:10:31.764Z,41.80
2023-05-02T00:25:33.235Z,41.80
2023-05-02T00:40:34.706Z,41.90
2023-05-02T00:55:36.228Z,42.00
2023-05-02T01:10:37.717Z,41.90
2023-05-02T01:25:39.188Z,42.00
2023-05-02T01:40:40.664Z,41.90
2023-05-02T01:55:42.143Z,42.10
2023-05-02T02:10:43.626Z,42.00
2023-05-02T02:25:45.105Z,42.00
2023-05-02T02:40:46.608Z,42.00
2023-05-02T02:55:48.067Z,42.00
2023-05-02T03:10:49.535Z,42.10
2023-05-02T03:25:51.008Z,42.00
2023-05-02T03:40:52.481Z,42.00
2023-05-02T03:55:53.972Z,41.90
2023-05-02T04:10:55.450Z,41.90
2023-05-02T04:25:56.928Z,41.80
2023-05-02T04:40:58.454Z,41.80
2023-05-02T04:55:59.981Z,41.80
2023-05-02T05:11:01.450Z,41.80
2023-05-02T05:26:02.947Z,41.80
2023-05-02T05:41:04.407Z,41.60
2023-05-02T05:56:05.868Z,42.70
2023-05-02T06:11:08.566Z,41.50
2023-05-02T06:26:10.035Z,41.30
2023-05-02T06:41:11.499Z,41.10
2023-05-02T06:56:13.001Z,40.90
2023-05-02T07:11:14.495Z,40.90
2023-05-02T07:26:16.203Z,40.60
2023-05-02T07:41:17.727Z,40.90
2023-05-02T07:56:19.190Z,40.50
2023-05-02T08:11:21.874Z,40.20
2023-05-02T08:26:24.011Z,40.00
2023-05-02T08:41:25.548Z,39.60
2023-05-02T08:56:27.064Z,39.60
2023-05-02T09:11:28.537Z,39.20
2023-05-02T09:26:31.580Z,39.80
2023-05-02T09:41:33.523Z,38.60
2023-05-02T09:56:35.016Z,38.50
2023-05-02T10:11:36.488Z,38.20
2023-05-02T10:26:37.956Z,37.90
2023-05-02T10:41:39.419Z,37.20
2023-05-02T10:56:40.904Z,37.30
2023-05-02T11:11:42.443Z,37.40
2023-05-02T11:26:44.067Z,37.40
2023-05-02T11:41:45.530Z,37.30
2023-05-02T11:56:47.071Z,37.30
2023-05-02T12:11:48.591Z,37.30
2023-05-02T12:26:51.197Z,37.30
2023-05-02T12:41:53.337Z,37.20
2023-05-02T12:56:54.802Z,37.20
2023-05-02T13:11:56.269Z,37.40
2023-05-02T13:26:57.732Z,37.30
2023-05-02T13:41:59.215Z,37.40
2023-05-02T13:57:00.686Z,37.40
2023-05-02T14:12:02.189Z,37.40
2023-05-02T14:27:03.650Z,37.40
2023-05-02T14:42:05.110Z,37.50
2023-05-02T14:57:06.625Z,37.60
2023-05-02T15:12:08.117Z,37.90
2023-05-02T15:27:09.598Z,38.00
2023-05-02T15:42:11.087Z,38.10
2023-05-02T15:57:12.551Z,38.20
2023-05-02T16:12:14.027Z,38.10
2023-05-02T16:27:15.500Z,38.10
2023-05-02T16:42:16.965Z,38.00
2023-05-02T16:57:18.512Z,38.00
2023-05-02T17:12:19.998Z,38.10
2023-05-02T17:27:21.471Z,38.40
2023-05-02T17:42:22.941Z,38.50
2023-05-02T17:57:24.417Z,38.50
2023-05-02T18:12:25.993Z,38.30
2023-05-02T18:27:27.473Z,38.10
2023-05-02T18:42:28.971Z,38.10
2023-05-02T18:57:30.491Z,38.00
2023-05-02T19:12:31.988Z,38.30
2023-05-02T19:27:33.443Z,38.40
2023-05-02T19:42:34.910Z,38.60
2023-05-02T19:57:36.378Z,38.60
2023-05-02T20:12:37.838Z,38.80
2023-05-02T20:27:39.339Z,38.80
2023-05-02T20:42:40.819Z,38.90
2023-05-02T20:57:42.295Z,39.00
2023-05-02T21:12:43.776Z,39.10
2023-05-02T21:27:45.271Z,39.10
2023-05-02T21:42:46.742Z,39.20
2023-05-02T21:57:48.229Z,39.30
2023-05-02T22:12:49.710Z,39.50
2023-05-02T22:27:51.190Z,39.40
2023-05-02T22:42:52.696Z,39.60
2023-05-02T22:57:54.301Z,39.70
2023-05-02T23:12:55.752Z,39.90
2023-05-02T23:27:57.210Z,40.10
2023-05-02T23:42:58.693Z,40.20
2023-05-02T23:58:00.162Z,40.30
